createdAt,value
2019-03-18T00:00:14.484Z,1.77
2019-03-18T00:02:41.821Z,1.70
2019-03-18T00:05:09.155Z,1.40
2019-03-18T00:07:36.384Z,1.90
2019-03-18T00:10:03.992Z,1.60
2019-03-18T00:12:31.335Z,1.85
2019-03-18T00:15:01.635Z,1.57
2019-03-18T00:17:27.785Z,2.05
2019-03-18T00:19:55.135Z,2.33
2019-03-18T00:22:22.429Z,2.75
2019-03-18T00:24:49.795Z,2.72
2019-03-18T00:27:17.104Z,2.62
2019-03-18T00:29:44.478Z,3.20
2019-03-18T00:32:11.965Z,2.60
2019-03-18T00:34:39.317Z,2.45
2019-03-18T00:37:06.639Z,3.10
2019-03-18T00:39:34.001Z,2.33
2019-03-18T00:42:01.503Z,2.40
2019-03-18T00:44:28.724Z,2.65
2019-03-18T00:46:56.175Z,2.90
2019-03-18T00:49:23.457Z,2.58
2019-03-18T00:51:50.693Z,2.40
2019-03-18T00:54:18.000Z,2.35
2019-03-18T00:56:45.317Z,2.67
2019-03-18T00:59:12.637Z,2.50
2019-03-18T01:01:39.926Z,2.72
2019-03-18T01:04:07.101Z,2.60
2019-03-18T01:06:34.430Z,2.90
2019-03-18T01:09:02.763Z,2.52
2019-03-18T01:11:29.979Z,2.83
2019-03-18T01:13:57.200Z,2.40
2019-03-18T01:16:24.541Z,2.60
2019-03-18T01:18:51.857Z,2.55
2019-03-18T01:21:19.193Z,3.30
2019-03-18T01:23:46.512Z,3.37
2019-03-18T01:26:13.812Z,3.15
2019-03-18T01:28:41.015Z,2.92
2019-03-18T01:31:08.326Z,2.62
2019-03-18T01:33:35.647Z,3.30
2019-03-18T01:36:02.973Z,2.85
2019-03-18T01:38:30.946Z,2.80
2019-03-18T01:40:58.228Z,3.02
2019-03-18T01:43:25.568Z,3.15
2019-03-18T01:45:52.872Z,3.98
2019-03-18T01:48:20.183Z,3.67
2019-03-18T01:50:47.531Z,4.03
2019-03-18T01:53:14.725Z,4.47
2019-03-18T01:55:42.069Z,4.28
2019-03-18T01:58:09.429Z,4.47
2019-03-18T02:00:37.101Z,3.95
2019-03-18T02:03:04.427Z,3.72
2019-03-18T02:05:31.728Z,3.60
2019-03-18T02:07:59.059Z,3.15
2019-03-18T02:10:26.376Z,2.70
2019-03-18T02:12:53.689Z,3.12
2019-03-18T02:15:21.003Z,2.85
2019-03-18T02:17:48.199Z,2.90
2019-03-18T02:20:15.523Z,2.58
2019-03-18T02:22:42.745Z,2.60
2019-03-18T02:25:09.966Z,2.52
2019-03-18T02:27:37.171Z,2.10
2019-03-18T02:30:05.209Z,2.00
2019-03-18T02:32:32.519Z,2.15
2019-03-18T02:34:59.922Z,2.45
2019-03-18T02:37:27.220Z,2.30
2019-03-18T02:39:54.404Z,2.70
2019-03-18T02:42:21.713Z,2.10
2019-03-18T02:44:48.908Z,2.75
2019-03-18T02:47:16.162Z,2.08
2019-03-18T02:49:43.488Z,2.35
2019-03-18T02:52:11.072Z,2.10
2019-03-18T02:54:38.265Z,2.05
2019-03-18T02:57:05.598Z,2.40
2019-03-18T02:59:32.899Z,2.40
2019-03-18T03:02:00.231Z,2.02
2019-03-18T03:04:27.641Z,1.90
2019-03-18T03:06:54.978Z,2.20
2019-03-18T03:09:22.362Z,1.82
2019-03-18T03:11:49.681Z,2.15
2019-03-18T03:14:17.057Z,1.80
2019-03-18T03:16:44.358Z,2.47
2019-03-18T03:19:11.734Z,2.20
2019-03-18T03:21:39.023Z,2.40
2019-03-18T03:24:06.346Z,1.98
2019-03-18T03:26:33.558Z,2.10
2019-03-18T03:29:00.877Z,2.17
2019-03-18T03:31:28.201Z,2.42
2019-03-18T03:33:55.504Z,2.70
2019-03-18T03:36:22.690Z,2.30
2019-03-18T03:38:49.905Z,2.52
2019-03-18T03:41:18.228Z,2.30
2019-03-18T03:43:46.028Z,2.33
2019-03-18T03:46:13.217Z,2.40
2019-03-18T03:48:40.569Z,2.55
2019-03-18T03:51:07.901Z,2.37
2019-03-18T03:53:35.225Z,2.33
2019-03-18T03:56:02.519Z,2.27
2019-03-18T03:58:29.860Z,2.87
2019-03-18T04:00:57.071Z,2.72
2019-03-18T04:03:37.575Z,2.33
2019-03-18T04:05:53.385Z,2.98
2019-03-18T04:08:20.803Z,2.58
2019-03-18T04:10:48.147Z,2.52
2019-03-18T04:13:15.486Z,2.75
2019-03-18T04:15:42.859Z,2.90
2019-03-18T04:18:10.230Z,3.10
2019-03-18T04:20:37.595Z,3.20
2019-03-18T04:23:04.928Z,3.15
2019-03-18T04:25:32.133Z,2.83
2019-03-18T04:28:00.990Z,2.85
2019-03-18T04:30:28.362Z,3.08
2019-03-18T04:32:55.848Z,3.08
2019-03-18T04:35:23.078Z,3.12
2019-03-18T04:37:50.509Z,2.90
2019-03-18T04:40:17.838Z,2.80
2019-03-18T04:42:45.103Z,2.65
2019-03-18T04:45:12.435Z,2.80
2019-03-18T04:47:39.723Z,3.08
2019-03-18T04:50:07.060Z,2.83
2019-03-18T04:52:34.314Z,3.12
2019-03-18T04:55:01.664Z,3.10
2019-03-18T04:57:29.013Z,3.15
2019-03-18T04:59:56.363Z,3.77
2019-03-18T05:02:23.847Z,3.33
2019-03-18T05:04:51.247Z,4.03
2019-03-18T05:07:18.655Z,3.00
2019-03-18T05:09:46.159Z,3.40
2019-03-18T05:12:13.509Z,3.40
2019-03-18T05:14:40.860Z,2.90
2019-03-18T05:17:08.180Z,3.85
2019-03-18T05:19:35.531Z,3.67
2019-03-18T05:22:02.908Z,4.03
2019-03-18T05:24:30.289Z,4.17
2019-03-18T05:26:57.681Z,3.87
2019-03-18T05:29:25.184Z,4.25
2019-03-18T05:31:52.541Z,4.00
2019-03-18T05:34:19.960Z,4.62
2019-03-18T05:36:47.387Z,4.25
2019-03-18T05:39:14.862Z,4.20
2019-03-18T05:41:42.182Z,4.45
2019-03-18T05:44:09.567Z,4.75
2019-03-18T05:46:36.914Z,4.92
2019-03-18T05:49:04.355Z,5.00
2019-03-18T05:51:31.668Z,4.28
2019-03-18T05:53:59.024Z,5.03
2019-03-18T05:56:26.372Z,4.92
2019-03-18T05:58:53.705Z,5.00
2019-03-18T06:01:21.016Z,5.10
2019-03-18T06:03:48.410Z,4.72
2019-03-18T06:06:15.767Z,5.35
2019-03-18T06:08:43.516Z,5.62
2019-03-18T06:11:10.763Z,5.00
2019-03-18T06:13:38.000Z,4.78
2019-03-18T06:16:05.332Z,4.83
2019-03-18T06:18:32.665Z,5.22
2019-03-18T06:21:00.009Z,4.40
2019-03-18T06:23:27.236Z,5.08
2019-03-18T06:25:54.619Z,5.15
2019-03-18T06:28:21.999Z,5.47
2019-03-18T06:30:49.215Z,5.72
2019-03-18T06:33:16.515Z,4.95
2019-03-18T06:35:43.841Z,5.20
2019-03-18T06:38:11.180Z,5.92
2019-03-18T06:40:38.377Z,6.42
2019-03-18T06:43:05.580Z,6.67
2019-03-18T06:45:32.979Z,6.40
2019-03-18T06:48:05.141Z,5.92
2019-03-18T06:50:29.527Z,5.67
2019-03-18T06:52:56.764Z,5.33
2019-03-18T06:55:24.150Z,5.53
2019-03-18T06:57:51.469Z,6.40
2019-03-18T07:00:18.870Z,5.40
2019-03-18T07:02:46.404Z,4.87
2019-03-18T07:05:13.708Z,5.25
2019-03-18T07:07:41.069Z,5.00
2019-03-18T07:10:08.425Z,5.45
2019-03-18T07:12:35.628Z,4.90
2019-03-18T07:15:03.051Z,4.60
2019-03-18T07:17:30.405Z,5.03
2019-03-18T07:19:57.640Z,5.97
2019-03-18T07:22:24.956Z,5.55
2019-03-18T07:24:52.312Z,5.12
2019-03-18T07:27:19.652Z,5.17
2019-03-18T07:29:46.964Z,5.85
2019-03-18T07:32:14.156Z,5.55
2019-03-18T07:34:41.474Z,5.80
2019-03-18T07:37:09.095Z,5.67
2019-03-18T07:39:36.295Z,5.80
2019-03-18T07:42:03.509Z,6.05
2019-03-18T07:44:30.944Z,5.70
2019-03-18T07:46:58.254Z,5.67
2019-03-18T07:49:25.567Z,5.58
2019-03-18T07:51:52.793Z,5.37
2019-03-18T07:54:31.859Z,5.17
2019-03-18T07:56:49.102Z,5.85
2019-03-18T07:59:16.300Z,4.90
2019-03-18T08:01:43.654Z,5.42
2019-03-18T08:04:11.089Z,5.90
2019-03-18T08:06:38.421Z,4.87
2019-03-18T08:09:07.475Z,4.70
2019-03-18T08:11:34.804Z,5.55
2019-03-18T08:14:02.049Z,4.60
2019-03-18T08:16:29.457Z,4.97
2019-03-18T08:18:56.793Z,4.92
2019-03-18T08:21:24.035Z,5.47
2019-03-18T08:23:51.245Z,4.90
2019-03-18T08:26:18.495Z,4.57
2019-03-18T08:28:45.793Z,4.90
2019-03-18T08:31:13.016Z,4.22
2019-03-18T08:33:40.332Z,4.70
2019-03-18T08:36:07.575Z,5.20
2019-03-18T08:38:34.786Z,5.37
2019-03-18T08:41:02.115Z,4.60
2019-03-18T08:43:29.400Z,4.77
2019-03-18T08:45:56.734Z,4.90
2019-03-18T08:48:23.988Z,4.73
2019-03-18T08:50:51.239Z,4.90
2019-03-18T08:53:18.573Z,4.70
2019-03-18T08:55:45.925Z,4.83
2019-03-18T08:58:13.506Z,4.80
2019-03-18T09:00:40.902Z,4.70
2019-03-18T09:03:08.120Z,4.30
2019-03-18T09:05:35.449Z,4.37
2019-03-18T09:08:02.663Z,3.30
2019-03-18T09:10:30.022Z,4.13
2019-03-18T09:12:57.269Z,3.57
2019-03-18T09:15:24.636Z,3.20
2019-03-18T09:17:51.989Z,3.97
2019-03-18T09:20:19.340Z,3.33
2019-03-18T09:22:46.590Z,3.20
2019-03-18T09:25:13.906Z,2.97
2019-03-18T09:27:41.242Z,2.57
2019-03-18T09:30:09.858Z,3.03
2019-03-18T09:32:37.248Z,2.90
2019-03-18T09:35:04.616Z,2.67
2019-03-18T09:37:31.965Z,1.97
2019-03-18T09:39:59.181Z,2.30
2019-03-18T09:42:26.480Z,2.23
2019-03-18T09:44:53.690Z,1.93
2019-03-18T09:47:21.074Z,2.30
2019-03-18T09:49:48.488Z,2.00
2019-03-18T09:52:15.705Z,2.27
2019-03-18T09:54:43.005Z,2.27
2019-03-18T09:57:10.298Z,2.40
2019-03-18T09:59:37.500Z,2.13
2019-03-18T10:02:05.120Z,2.07
2019-03-18T10:04:32.359Z,2.10
2019-03-18T10:06:59.545Z,2.20
2019-03-18T10:09:26.869Z,1.87
2019-03-18T10:11:54.182Z,1.57
2019-03-18T10:14:21.416Z,1.90
2019-03-18T10:16:48.796Z,2.10
2019-03-18T10:19:16.122Z,1.93
2019-03-18T10:21:43.358Z,1.90
2019-03-18T10:24:10.564Z,2.27
2019-03-18T10:26:37.776Z,2.30
2019-03-18T10:29:05.078Z,2.20
2019-03-18T10:31:32.403Z,2.13
2019-03-18T10:33:59.610Z,2.40
2019-03-18T10:36:26.973Z,2.47
2019-03-18T10:38:54.540Z,2.20
2019-03-18T10:41:21.852Z,2.37
2019-03-18T10:43:49.045Z,2.57
2019-03-18T10:46:16.343Z,2.20
2019-03-18T10:48:43.681Z,2.53
2019-03-18T10:51:10.999Z,2.13
2019-03-18T10:53:38.329Z,2.37
2019-03-18T10:56:08.118Z,2.07
2019-03-18T10:58:34.758Z,2.80
2019-03-18T11:01:01.947Z,2.43
2019-03-18T11:03:29.174Z,2.13
2019-03-18T11:05:56.382Z,2.30
2019-03-18T11:08:23.631Z,2.50
2019-03-18T11:10:50.896Z,2.67
2019-03-18T11:13:18.281Z,1.80
2019-03-18T11:15:45.581Z,2.87
2019-03-18T11:18:12.939Z,2.40
2019-03-18T11:20:40.135Z,2.40
2019-03-18T11:23:07.464Z,2.60
2019-03-18T11:25:34.777Z,2.53
2019-03-18T11:28:02.111Z,3.13
2019-03-18T11:30:29.446Z,2.10
2019-03-18T11:32:56.657Z,2.53
2019-03-18T11:35:23.990Z,2.30
2019-03-18T11:37:51.376Z,2.30
2019-03-18T11:40:18.619Z,2.50
2019-03-18T11:42:45.837Z,2.47
2019-03-18T11:45:13.235Z,2.37
2019-03-18T11:47:40.550Z,2.20
2019-03-18T11:50:11.258Z,2.57
2019-03-18T11:52:37.487Z,2.37
2019-03-18T11:55:05.936Z,2.30
2019-03-18T11:57:33.280Z,1.97
2019-03-18T12:00:00.553Z,1.70
2019-03-18T12:02:28.245Z,1.63
2019-03-18T12:04:57.641Z,1.80
2019-03-18T12:07:24.732Z,1.50
2019-03-18T12:09:52.076Z,1.67
2019-03-18T12:12:19.408Z,1.77
2019-03-18T12:14:46.724Z,1.60
2019-03-18T12:17:13.997Z,1.80
2019-03-18T12:19:41.339Z,1.57
2019-03-18T12:22:08.685Z,2.30
2019-03-18T12:24:36.041Z,2.00
2019-03-18T12:27:03.391Z,2.50
2019-03-18T12:29:30.720Z,2.47
2019-03-18T12:31:58.057Z,2.03
2019-03-18T12:34:25.301Z,2.10
2019-03-18T12:36:52.525Z,2.03
2019-03-18T12:39:19.955Z,2.07
2019-03-18T12:41:47.273Z,1.77
2019-03-18T12:44:14.505Z,1.77
2019-03-18T12:46:41.749Z,2.20
2019-03-18T12:49:08.990Z,1.80
2019-03-18T12:51:36.295Z,1.70
2019-03-18T12:54:03.621Z,1.70
2019-03-18T12:56:30.850Z,1.80
2019-03-18T12:58:58.165Z,2.33
2019-03-18T13:01:25.485Z,1.87
2019-03-18T13:03:52.833Z,1.80
2019-03-18T13:06:20.143Z,2.30
2019-03-18T13:08:47.357Z,2.23
2019-03-18T13:11:14.577Z,2.00
2019-03-18T13:13:41.905Z,1.97
2019-03-18T13:16:09.275Z,2.17
2019-03-18T13:18:36.580Z,1.97
2019-03-18T13:21:08.108Z,2.00
2019-03-18T13:23:33.055Z,2.00
2019-03-18T13:26:00.354Z,1.43
2019-03-18T13:28:27.684Z,2.30
2019-03-18T13:30:54.995Z,1.90
2019-03-18T13:33:22.294Z,1.83
2019-03-18T13:35:49.526Z,2.03
2019-03-18T13:38:16.754Z,2.50
2019-03-18T13:40:45.955Z,2.43
2019-03-18T13:43:13.257Z,2.00
2019-03-18T13:45:40.571Z,2.07
2019-03-18T13:48:07.870Z,2.27
2019-03-18T13:50:35.290Z,2.43
2019-03-18T13:53:02.607Z,2.30
2019-03-18T13:55:29.923Z,2.07
2019-03-18T13:57:57.176Z,2.03
2019-03-18T14:00:24.391Z,2.63
2019-03-18T14:02:51.716Z,1.83
2019-03-18T14:05:19.021Z,2.43
2019-03-18T14:07:58.988Z,2.67
2019-03-18T14:10:15.601Z,2.43
2019-03-18T14:12:42.925Z,2.23
2019-03-18T14:15:12.840Z,1.90
2019-03-18T14:17:40.155Z,2.07
2019-03-18T14:20:08.553Z,1.83
2019-03-18T14:22:35.769Z,2.00
2019-03-18T14:25:03.448Z,1.93
2019-03-18T14:27:30.802Z,2.10
2019-03-18T14:29:58.016Z,1.87
2019-03-18T14:32:25.344Z,2.10
2019-03-18T14:34:52.647Z,1.97
2019-03-18T14:37:19.976Z,1.67
2019-03-18T14:39:47.297Z,2.00
2019-03-18T14:42:14.521Z,1.83
2019-03-18T14:44:41.863Z,2.33
2019-03-18T14:47:09.178Z,2.17
2019-03-18T14:49:36.383Z,2.80
2019-03-18T14:52:03.703Z,2.23
2019-03-18T14:54:31.033Z,2.57
2019-03-18T14:56:58.239Z,2.60
2019-03-18T14:59:25.576Z,2.70
2019-03-18T15:01:52.919Z,2.13
2019-03-18T15:04:20.146Z,2.13
2019-03-18T15:06:47.487Z,2.20
2019-03-18T15:09:14.792Z,2.40
2019-03-18T15:11:42.006Z,2.27
2019-03-18T15:14:09.222Z,2.30
2019-03-18T15:16:36.458Z,2.70
2019-03-18T15:19:03.758Z,2.30
2019-03-18T15:21:30.951Z,2.10
2019-03-18T15:23:58.173Z,2.30
2019-03-18T15:26:25.458Z,1.90
2019-03-18T15:28:52.814Z,2.10
2019-03-18T15:31:20.156Z,1.87
2019-03-18T15:33:47.505Z,2.30
2019-03-18T15:36:14.802Z,2.20
2019-03-18T15:38:42.144Z,2.23
2019-03-18T15:41:09.474Z,2.37
2019-03-18T15:43:36.845Z,1.93
2019-03-18T15:46:04.095Z,2.43
2019-03-18T15:48:31.321Z,2.00
2019-03-18T15:50:58.620Z,2.37
2019-03-18T15:53:25.964Z,2.53
2019-03-18T15:55:53.344Z,2.20
2019-03-18T15:58:20.561Z,2.27
2019-03-18T16:00:47.873Z,2.33
2019-03-18T16:03:15.147Z,2.60
2019-03-18T16:05:42.455Z,2.33
2019-03-18T16:08:09.655Z,2.93
2019-03-18T16:10:36.987Z,2.47
2019-03-18T16:13:04.322Z,2.50
2019-03-18T16:15:31.634Z,2.67
2019-03-18T16:17:58.958Z,2.53
2019-03-18T16:20:27.428Z,2.30
2019-03-18T16:22:54.633Z,2.53
2019-03-18T16:25:21.860Z,2.63
2019-03-18T16:27:49.179Z,2.43
2019-03-18T16:30:16.517Z,2.77
2019-03-18T16:32:44.026Z,2.87
2019-03-18T16:35:11.637Z,2.37
2019-03-18T16:37:38.969Z,2.07
2019-03-18T16:40:07.393Z,2.90
2019-03-18T16:42:34.726Z,2.43
2019-03-18T16:45:02.028Z,2.90
2019-03-18T16:47:31.406Z,2.57
2019-03-18T16:49:58.613Z,2.50
2019-03-18T16:52:35.237Z,2.43
2019-03-18T16:54:55.069Z,2.00
2019-03-18T16:57:22.399Z,2.30
2019-03-18T16:59:49.590Z,2.10
2019-03-18T17:02:16.789Z,2.20
2019-03-18T17:04:44.089Z,2.40
2019-03-18T17:07:11.411Z,2.30
2019-03-18T17:09:38.778Z,2.50
2019-03-18T17:12:06.124Z,2.43
2019-03-18T17:14:33.471Z,2.47
2019-03-18T17:17:00.826Z,1.90
2019-03-18T17:19:28.047Z,2.20
2019-03-18T17:21:55.274Z,1.83
2019-03-18T17:24:22.588Z,2.20
2019-03-18T17:26:49.836Z,1.67
2019-03-18T17:29:17.164Z,2.10
2019-03-18T17:31:44.474Z,1.87
2019-03-18T17:34:11.796Z,2.00
2019-03-18T17:36:39.086Z,2.47
2019-03-18T17:39:07.478Z,1.87
2019-03-18T17:41:34.670Z,2.00
2019-03-18T17:44:02.016Z,2.07
2019-03-18T17:46:29.355Z,2.37
2019-03-18T17:48:56.685Z,2.20
2019-03-18T17:51:23.876Z,2.20
2019-03-18T17:53:51.092Z,2.10
2019-03-18T17:56:29.677Z,1.73
2019-03-18T17:58:47.508Z,2.37
2019-03-18T18:01:14.938Z,2.23
2019-03-18T18:03:42.402Z,2.17
2019-03-18T18:06:09.598Z,4.47
2019-03-18T18:08:36.788Z,3.70
2019-03-18T18:11:04.088Z,3.00
2019-03-18T18:13:31.894Z,1.93
2019-03-18T18:15:59.118Z,6.17
2019-03-18T18:18:26.504Z,2.60
2019-03-18T18:20:53.816Z,2.33
2019-03-18T18:23:21.203Z,2.33
2019-03-18T18:25:48.527Z,2.60
2019-03-18T18:28:15.994Z,2.33
2019-03-18T18:30:43.278Z,3.00
2019-03-18T18:33:10.574Z,3.93
2019-03-18T18:35:37.820Z,2.93
2019-03-18T18:38:05.164Z,4.33
2019-03-18T18:40:32.382Z,3.13
2019-03-18T18:42:59.684Z,2.77
2019-03-18T18:45:26.985Z,3.03
2019-03-18T18:47:54.237Z,7.93
2019-03-18T18:50:21.609Z,4.33
2019-03-18T18:52:48.944Z,2.67
2019-03-18T18:55:16.344Z,2.73
2019-03-18T18:57:43.676Z,3.40
2019-03-18T19:00:12.948Z,2.27
2019-03-18T19:02:40.274Z,2.90
2019-03-18T19:05:09.042Z,2.57
2019-03-18T19:07:36.297Z,3.70
2019-03-18T19:10:04.177Z,3.23
2019-03-18T19:12:31.392Z,3.37
2019-03-18T19:14:58.718Z,2.73
2019-03-18T19:17:26.046Z,3.50
2019-03-18T19:19:53.380Z,3.33
2019-03-18T19:22:20.688Z,3.00
2019-03-18T19:24:48.030Z,3.00
2019-03-18T19:27:15.381Z,3.45
2019-03-18T19:29:42.786Z,2.77
2019-03-18T19:32:10.256Z,2.33
2019-03-18T19:34:37.650Z,4.25
2019-03-18T19:37:04.984Z,3.53
2019-03-18T19:39:32.362Z,3.67
2019-03-18T19:41:59.768Z,4.15
2019-03-18T19:44:27.104Z,2.70
2019-03-18T19:46:54.560Z,3.40
2019-03-18T19:49:21.883Z,3.20
2019-03-18T19:51:49.265Z,3.03
2019-03-18T19:54:16.655Z,3.50
2019-03-18T19:56:44.021Z,3.85
2019-03-18T19:59:11.383Z,3.85
2019-03-18T20:01:38.687Z,4.30
2019-03-18T20:04:06.086Z,3.00
2019-03-18T20:06:33.445Z,3.12
2019-03-18T20:09:00.799Z,3.27
2019-03-18T20:11:28.232Z,2.75
2019-03-18T20:13:55.686Z,3.42
2019-03-18T20:16:23.120Z,3.05
2019-03-18T20:18:50.522Z,3.47
2019-03-18T20:21:17.908Z,3.47
2019-03-18T20:23:45.342Z,3.72
2019-03-18T20:26:12.701Z,3.00
2019-03-18T20:28:40.146Z,3.67
2019-03-18T20:31:07.535Z,4.83
2019-03-18T20:33:34.979Z,3.15
2019-03-18T20:36:02.363Z,3.58
2019-03-18T20:38:29.679Z,3.87
2019-03-18T20:40:57.084Z,3.40
2019-03-18T20:43:24.317Z,4.03
2019-03-18T20:45:51.581Z,3.98
2019-03-18T20:48:18.953Z,3.60
2019-03-18T20:50:46.398Z,3.25
2019-03-18T20:53:13.765Z,2.75
2019-03-18T20:55:41.193Z,3.02
2019-03-18T20:58:08.607Z,3.50
2019-03-18T21:00:36.031Z,3.45
2019-03-18T21:03:03.481Z,3.17
2019-03-18T21:05:30.873Z,3.40
2019-03-18T21:07:58.225Z,3.33
2019-03-18T21:10:25.643Z,3.47
2019-03-18T21:12:53.073Z,3.08
2019-03-18T21:15:20.394Z,3.30
2019-03-18T21:17:47.818Z,3.10
2019-03-18T21:20:15.301Z,3.58
2019-03-18T21:22:42.706Z,3.30
2019-03-18T21:25:10.335Z,2.65
2019-03-18T21:27:37.582Z,3.58
2019-03-18T21:30:05.020Z,3.27
2019-03-18T21:32:32.353Z,3.40
2019-03-18T21:35:00.881Z,3.70
2019-03-18T21:37:28.169Z,3.15
2019-03-18T21:39:55.523Z,3.45
2019-03-18T21:42:22.953Z,3.95
2019-03-18T21:44:50.299Z,3.77
2019-03-18T21:47:17.649Z,4.25
2019-03-18T21:49:45.037Z,3.27
2019-03-18T21:52:12.404Z,3.15
2019-03-18T21:54:39.705Z,3.75
2019-03-18T21:57:06.991Z,3.70
2019-03-18T21:59:34.333Z,3.35
2019-03-18T22:02:01.757Z,2.90
2019-03-18T22:04:29.083Z,3.40
2019-03-18T22:06:56.456Z,3.55
2019-03-18T22:09:23.798Z,3.50
2019-03-18T22:11:51.173Z,4.42
2019-03-18T22:14:18.513Z,4.00
2019-03-18T22:16:45.874Z,3.77
2019-03-18T22:19:15.739Z,4.03
2019-03-18T22:21:42.553Z,3.95
2019-03-18T22:24:09.806Z,3.85
2019-03-18T22:26:37.233Z,3.90
2019-03-18T22:29:04.588Z,2.98
2019-03-18T22:31:31.957Z,3.37
2019-03-18T22:33:59.336Z,3.90
2019-03-18T22:36:26.664Z,3.85
2019-03-18T22:38:53.992Z,3.00
2019-03-18T22:41:21.306Z,3.22
2019-03-18T22:43:48.664Z,4.15
2019-03-18T22:46:15.975Z,3.33
2019-03-18T22:48:43.250Z,4.08
2019-03-18T22:51:10.602Z,3.35
2019-03-18T22:53:37.971Z,3.75
2019-03-18T22:56:05.325Z,3.50
2019-03-18T22:58:32.653Z,3.62
2019-03-18T23:01:07.879Z,3.30
2019-03-18T23:03:35.157Z,3.62
2019-03-18T23:06:02.474Z,3.22
2019-03-18T23:08:29.882Z,3.52
2019-03-18T23:10:57.223Z,3.05
2019-03-18T23:13:24.579Z,4.08
2019-03-18T23:15:51.901Z,3.80
2019-03-18T23:18:19.173Z,3.70
2019-03-18T23:20:46.530Z,3.33
2019-03-18T23:23:13.869Z,4.25
2019-03-18T23:25:41.179Z,4.05
2019-03-18T23:28:08.433Z,3.92
2019-03-18T23:30:35.753Z,3.62
2019-03-18T23:33:03.097Z,4.33
2019-03-18T23:35:30.461Z,3.47
2019-03-18T23:37:57.852Z,3.92
2019-03-18T23:40:25.093Z,3.72
2019-03-18T23:42:52.787Z,4.22
2019-03-18T23:45:20.243Z,3.40
2019-03-18T23:47:47.591Z,3.52
2019-03-18T23:50:15.079Z,4.17
2019-03-18T23:52:42.397Z,3.55
2019-03-18T23:55:18.188Z,3.12
2019-03-18T23:57:39.073Z,4.12
